sensor_id;sensor_type;location;lat;lon;timestamp;temperature;humidity
28773;DHT22;15925;51.222;5.678;2023-07-02T00:01:11;18.20;99.90
28773;DHT22;15925;51.222;5.678;2023-07-02T00:03:39;18.10;99.90
28773;DHT22;15925;51.222;5.678;2023-07-02T00:06:05;18.10;99.90
28773;DHT22;15925;51.222;5.678;2023-07-02T00:08:31;18.20;99.90
28773;DHT22;15925;51.222;5.678;2023-07-02T00:10:57;18.20;99.90
28773;DHT22;15925;51.222;5.678;2023-07-02T00:13:23;18.10;99.90
28773;DHT22;15925;51.222;5.678;2023-07-02T00:15:49;18.10;99.90
28773;DHT22;15925;51.222;5.678;2023-07-02T00:18:14;17.90;99.90
28773;DHT22;15925;51.222;5.678;2023-07-02T00:20:43;17.90;99.90
28773;DHT22;15925;51.222;5.678;2023-07-02T00:23:09;17.90;99.90
28773;DHT22;15925;51.222;5.678;2023-07-02T00:25:38;17.70;99.90
28773;DHT22;15925;51.222;5.678;2023-07-02T00:28:04;17.80;99.90
28773;DHT22;15925;51.222;5.678;2023-07-02T00:30:30;17.80;99.90
28773;DHT22;15925;51.222;5.678;2023-07-02T00:32:56;17.90;99.90
28773;DHT22;15925;51.222;5.678;2023-07-02T00:35:22;17.80;99.90
28773;DHT22;15925;51.222;5.678;2023-07-02T00:37:49;17.90;99.90
28773;DHT22;15925;51.222;5.678;2023-07-02T00:40:15;18.00;99.90
28773;DHT22;15925;51.222;5.678;2023-07-02T00:42:40;18.00;99.90
28773;DHT22;15925;51.222;5.678;2023-07-02T00:45:07;18.10;99.90
28773;DHT22;15925;51.222;5.678;2023-07-02T00:47:34;17.80;99.90
28773;DHT22;15925;51.222;5.678;2023-07-02T00:50:01;17.90;99.90
28773;DHT22;15925;51.222;5.678;2023-07-02T00:52:27;17.90;99.90
28773;DHT22;15925;51.222;5.678;2023-07-02T00:54:53;17.90;99.90
28773;DHT22;15925;51.222;5.678;2023-07-02T00:57:19;17.80;99.90
28773;DHT22;15925;51.222;5.678;2023-07-02T00:59:45;17.70;99.90
28773;DHT22;15925;51.222;5.678;2023-07-02T01:02:11;17.60;99.90
28773;DHT22;15925;51.222;5.678;2023-07-02T01:04:39;17.60;99.90
28773;DHT22;15925;51.222;5.678;2023-07-02T01:07:05;17.60;99.90
28773;DHT22;15925;51.222;5.678;2023-07-02T01:09:36;17.60;99.90
28773;DHT22;15925;51.222;5.678;2023-07-02T01:12:07;17.50;99.90
28773;DHT22;15925;51.222;5.678;2023-07-02T01:14:57;17.50;99.90
28773;DHT22;15925;51.222;5.678;2023-07-02T01:17:25;17.50;99.90
28773;DHT22;15925;51.222;5.678;2023-07-02T01:19:57;17.50;99.90
28773;DHT22;15925;51.222;5.678;2023-07-02T01:22:26;17.50;99.90
28773;DHT22;15925;51.222;5.678;2023-07-02T01:24:53;17.40;99.90
28773;DHT22;15925;51.222;5.678;2023-07-02T01:27:20;17.40;99.90
28773;DHT22;15925;51.222;5.678;2023-07-02T01:29:47;17.40;99.90
28773;DHT22;15925;51.222;5.678;2023-07-02T01:32:13;17.20;99.90
28773;DHT22;15925;51.222;5.678;2023-07-02T01:34:39;17.30;99.90
28773;DHT22;15925;51.222;5.678;2023-07-02T01:37:08;17.30;99.90
28773;DHT22;15925;51.222;5.678;2023-07-02T01:39:35;17.30;99.90
28773;DHT22;15925;51.222;5.678;2023-07-02T01:42:09;17.30;99.90
28773;DHT22;15925;51.222;5.678;2023-07-02T01:44:35;17.20;99.90
28773;DHT22;15925;51.222;5.678;2023-07-02T01:47:01;17.20;99.90
28773;DHT22;15925;51.222;5.678;2023-07-02T01:49:27;17.10;99.90
28773;DHT22;15925;51.222;5.678;2023-07-02T01:51:54;17.20;99.90
28773;DHT22;15925;51.222;5.678;2023-07-02T01:54:22;17.20;99.90
28773;DHT22;15925;51.222;5.678;2023-07-02T01:56:48;17.20;99.90
28773;DHT22;15925;51.222;5.678;2023-07-02T01:59:17;17.20;99.90
28773;DHT22;15925;51.222;5.678;2023-07-02T02:01:43;17.30;99.90
28773;DHT22;15925;51.222;5.678;2023-07-02T02:04:09;17.30;99.90
28773;DHT22;15925;51.222;5.678;2023-07-02T02:06:36;17.30;99.90
28773;DHT22;15925;51.222;5.678;2023-07-02T02:09:03;17.30;99.90
28773;DHT22;15925;51.222;5.678;2023-07-02T02:11:30;17.20;99.90
28773;DHT22;15925;51.222;5.678;2023-07-02T02:13:57;17.20;99.90
28773;DHT22;15925;51.222;5.678;2023-07-02T02:16:23;17.10;99.90
28773;DHT22;15925;51.222;5.678;2023-07-02T02:18:49;17.20;99.90
28773;DHT22;15925;51.222;5.678;2023-07-02T02:21:18;17.10;99.90
28773;DHT22;15925;51.222;5.678;2023-07-02T02:23:44;17.00;99.90
28773;DHT22;15925;51.222;5.678;2023-07-02T02:26:10;16.90;99.90
28773;DHT22;15925;51.222;5.678;2023-07-02T02:28:36;17.00;99.90
28773;DHT22;15925;51.222;5.678;2023-07-02T02:31:02;16.90;99.90
28773;DHT22;15925;51.222;5.678;2023-07-02T02:33:29;17.00;99.90
28773;DHT22;15925;51.222;5.678;2023-07-02T02:35:56;17.10;99.90
28773;DHT22;15925;51.222;5.678;2023-07-02T02:38:22;17.10;99.90
28773;DHT22;15925;51.222;5.678;2023-07-02T02:40:48;17.00;99.90
28773;DHT22;15925;51.222;5.678;2023-07-02T02:43:17;17.00;99.90
28773;DHT22;15925;51.222;5.678;2023-07-02T02:45:44;17.10;99.90
28773;DHT22;15925;51.222;5.678;2023-07-02T02:48:10;17.00;99.90
28773;DHT22;15925;51.222;5.678;2023-07-02T02:50:37;17.00;99.90
28773;DHT22;15925;51.222;5.678;2023-07-02T02:53:07;17.00;99.90
28773;DHT22;15925;51.222;5.678;2023-07-02T02:55:33;17.00;99.90
28773;DHT22;15925;51.222;5.678;2023-07-02T02:57:59;17.00;99.90
28773;DHT22;15925;51.222;5.678;2023-07-02T03:00:27;17.00;99.90
28773;DHT22;15925;51.222;5.678;2023-07-02T03:02:53;17.00;99.90
28773;DHT22;15925;51.222;5.678;2023-07-02T03:05:18;16.90;99.90
28773;DHT22;15925;51.222;5.678;2023-07-02T03:07:44;16.80;99.90
28773;DHT22;15925;51.222;5.678;2023-07-02T03:10:10;16.80;99.90
28773;DHT22;15925;51.222;5.678;2023-07-02T03:12:36;16.90;99.90
28773;DHT22;15925;51.222;5.678;2023-07-02T03:15:02;16.90;99.90
28773;DHT22;15925;51.222;5.678;2023-07-02T03:17:28;17.00;99.90
28773;DHT22;15925;51.222;5.678;2023-07-02T03:19:54;16.90;99.90
28773;DHT22;15925;51.222;5.678;2023-07-02T03:22:19;17.00;99.90
28773;DHT22;15925;51.222;5.678;2023-07-02T03:24:45;16.90;99.90
28773;DHT22;15925;51.222;5.678;2023-07-02T03:27:11;17.00;99.90
28773;DHT22;15925;51.222;5.678;2023-07-02T03:29:37;16.90;99.90
28773;DHT22;15925;51.222;5.678;2023-07-02T03:32:04;16.80;99.90
28773;DHT22;15925;51.222;5.678;2023-07-02T03:34:30;16.80;99.90
28773;DHT22;15925;51.222;5.678;2023-07-02T03:36:56;16.80;99.90
28773;DHT22;15925;51.222;5.678;2023-07-02T03:39:22;16.80;99.90
28773;DHT22;15925;51.222;5.678;2023-07-02T03:41:47;16.70;99.90
28773;DHT22;15925;51.222;5.678;2023-07-02T03:44:13;16.80;99.90
28773;DHT22;15925;51.222;5.678;2023-07-02T03:46:39;16.70;99.90
28773;DHT22;15925;51.222;5.678;2023-07-02T03:49:05;16.70;99.90
28773;DHT22;15925;51.222;5.678;2023-07-02T03:51:31;16.70;99.90
28773;DHT22;15925;51.222;5.678;2023-07-02T03:54:00;16.60;99.90
28773;DHT22;15925;51.222;5.678;2023-07-02T03:56:26;16.70;99.90
28773;DHT22;15925;51.222;5.678;2023-07-02T03:58:53;16.70;99.90
28773;DHT22;15925;51.222;5.678;2023-07-02T04:01:18;16.70;99.90
28773;DHT22;15925;51.222;5.678;2023-07-02T04:03:49;16.60;99.90
28773;DHT22;15925;51.222;5.678;2023-07-02T04:06:16;16.60;99.90
28773;DHT22;15925;51.222;5.678;2023-07-02T04:08:42;16.60;99.90
28773;DHT22;15925;51.222;5.678;2023-07-02T04:11:08;16.70;99.90
28773;DHT22;15925;51.222;5.678;2023-07-02T04:13:34;16.70;99.90
28773;DHT22;15925;51.222;5.678;2023-07-02T04:16:00;16.70;99.90
28773;DHT22;15925;51.222;5.678;2023-07-02T04:18:25;16.70;99.90
28773;DHT22;15925;51.222;5.678;2023-07-02T04:20:51;16.70;99.90
28773;DHT22;15925;51.222;5.678;2023-07-02T04:23:17;16.60;99.90
28773;DHT22;15925;51.222;5.678;2023-07-02T04:25:43;16.70;99.90
28773;DHT22;15925;51.222;5.678;2023-07-02T04:28:09;16.70;99.90
28773;DHT22;15925;51.222;5.678;2023-07-02T04:30:35;16.60;99.90
28773;DHT22;15925;51.222;5.678;2023-07-02T04:33:01;16.70;99.90
28773;DHT22;15925;51.222;5.678;2023-07-02T04:35:26;16.70;99.90
28773;DHT22;15925;51.222;5.678;2023-07-02T04:37:52;16.70;99.90
28773;DHT22;15925;51.222;5.678;2023-07-02T04:40:18;16.70;99.90
28773;DHT22;15925;51.222;5.678;2023-07-02T04:42:44;16.70;99.90
28773;DHT22;15925;51.222;5.678;2023-07-02T04:45:13;16.60;99.90
28773;DHT22;15925;51.222;5.678;2023-07-02T04:47:42;16.70;99.90
28773;DHT22;15925;51.222;5.678;2023-07-02T04:50:08;16.80;99.90
28773;DHT22;15925;51.222;5.678;2023-07-02T04:52:34;16.80;99.90
28773;DHT22;15925;51.222;5.678;2023-07-02T04:55:00;16.80;99.90
28773;DHT22;15925;51.222;5.678;2023-07-02T04:57:25;16.90;99.90
28773;DHT22;15925;51.222;5.678;2023-07-02T04:59:52;16.80;99.90
28773;DHT22;15925;51.222;5.678;2023-07-02T05:02:17;16.90;99.90
28773;DHT22;15925;51.222;5.678;2023-07-02T05:04:43;16.90;99.90
28773;DHT22;15925;51.222;5.678;2023-07-02T05:07:09;16.90;99.90
28773;DHT22;15925;51.222;5.678;2023-07-02T05:09:35;17.00;99.90
28773;DHT22;15925;51.222;5.678;2023-07-02T05:12:01;17.10;99.90
28773;DHT22;15925;51.222;5.678;2023-07-02T05:14:26;17.10;99.90
28773;DHT22;15925;51.222;5.678;2023-07-02T05:16:52;17.10;99.90
28773;DHT22;15925;51.222;5.678;2023-07-02T05:19:18;17.00;99.90
28773;DHT22;15925;51.222;5.678;2023-07-02T05:21:44;17.10;99.90
28773;DHT22;15925;51.222;5.678;2023-07-02T05:24:09;17.10;99.90
28773;DHT22;15925;51.222;5.678;2023-07-02T05:26:35;17.10;99.90
28773;DHT22;15925;51.222;5.678;2023-07-02T05:29:01;17.00;99.90
28773;DHT22;15925;51.222;5.678;2023-07-02T05:31:27;16.90;99.90
28773;DHT22;15925;51.222;5.678;2023-07-02T05:33:54;16.90;99.90
28773;DHT22;15925;51.222;5.678;2023-07-02T05:36:20;17.00;99.90
28773;DHT22;15925;51.222;5.678;2023-07-02T05:38:46;17.00;99.90
28773;DHT22;15925;51.222;5.678;2023-07-02T05:41:18;17.10;99.90
28773;DHT22;15925;51.222;5.678;2023-07-02T05:43:44;17.10;99.90
28773;DHT22;15925;51.222;5.678;2023-07-02T05:46:10;17.10;99.90
28773;DHT22;15925;51.222;5.678;2023-07-02T05:48:36;17.10;99.90
28773;DHT22;15925;51.222;5.678;2023-07-02T05:51:02;17.00;99.90
28773;DHT22;15925;51.222;5.678;2023-07-02T05:53:28;17.10;99.90
28773;DHT22;15925;51.222;5.678;2023-07-02T05:55:54;17.10;99.90
28773;DHT22;15925;51.222;5.678;2023-07-02T05:58:19;17.10;99.90
28773;DHT22;15925;51.222;5.678;2023-07-02T06:00:45;17.10;99.90
28773;DHT22;15925;51.222;5.678;2023-07-02T06:03:16;17.20;99.90
28773;DHT22;15925;51.222;5.678;2023-07-02T06:05:48;17.10;99.90
28773;DHT22;15925;51.222;5.678;2023-07-02T06:08:17;17.20;99.90
28773;DHT22;15925;51.222;5.678;2023-07-02T06:10:47;17.20;99.90
28773;DHT22;15925;51.222;5.678;2023-07-02T06:13:13;17.30;99.90
28773;DHT22;15925;51.222;5.678;2023-07-02T06:15:39;17.20;99.90
28773;DHT22;15925;51.222;5.678;2023-07-02T06:18:05;17.20;99.90
28773;DHT22;15925;51.222;5.678;2023-07-02T06:20:31;17.10;99.90
28773;DHT22;15925;51.222;5.678;2023-07-02T06:22:57;17.20;99.90
28773;DHT22;15925;51.222;5.678;2023-07-02T06:25:23;17.20;99.90
28773;DHT22;15925;51.222;5.678;2023-07-02T06:27:49;17.20;99.90
28773;DHT22;15925;51.222;5.678;2023-07-02T06:30:15;17.30;99.90
28773;DHT22;15925;51.222;5.678;2023-07-02T06:32:41;17.30;99.90
28773;DHT22;15925;51.222;5.678;2023-07-02T06:35:07;17.40;99.90
28773;DHT22;15925;51.222;5.678;2023-07-02T06:37:33;17.40;99.90
28773;DHT22;15925;51.222;5.678;2023-07-02T06:39:59;17.40;99.90
28773;DHT22;15925;51.222;5.678;2023-07-02T06:42:25;17.40;99.90
28773;DHT22;15925;51.222;5.678;2023-07-02T06:44:51;17.40;99.90
28773;DHT22;15925;51.222;5.678;2023-07-02T06:47:17;17.50;99.90
28773;DHT22;15925;51.222;5.678;2023-07-02T06:49:43;17.50;99.90
28773;DHT22;15925;51.222;5.678;2023-07-02T06:52:09;17.50;99.90
28773;DHT22;15925;51.222;5.678;2023-07-02T06:54:34;17.50;99.90
28773;DHT22;15925;51.222;5.678;2023-07-02T06:57:00;17.60;99.90
28773;DHT22;15925;51.222;5.678;2023-07-02T06:59:26;17.70;99.90
28773;DHT22;15925;51.222;5.678;2023-07-02T07:01:52;17.70;99.90
28773;DHT22;15925;51.222;5.678;2023-07-02T07:04:18;17.70;99.90
28773;DHT22;15925;51.222;5.678;2023-07-02T07:06:44;17.80;99.90
28773;DHT22;15925;51.222;5.678;2023-07-02T07:09:10;17.80;99.90
28773;DHT22;15925;51.222;5.678;2023-07-02T07:11:36;17.90;99.90
28773;DHT22;15925;51.222;5.678;2023-07-02T07:14:02;18.00;99.90
28773;DHT22;15925;51.222;5.678;2023-07-02T07:16:27;18.00;99.90
28773;DHT22;15925;51.222;5.678;2023-07-02T07:18:53;18.00;99.90
28773;DHT22;15925;51.222;5.678;2023-07-02T07:21:19;18.00;99.90
28773;DHT22;15925;51.222;5.678;2023-07-02T07:23:45;18.10;99.90
28773;DHT22;15925;51.222;5.678;2023-07-02T07:26:11;18.10;99.90
28773;DHT22;15925;51.222;5.678;2023-07-02T07:28:37;18.10;99.90
28773;DHT22;15925;51.222;5.678;2023-07-02T07:31:02;18.10;99.90
28773;DHT22;15925;51.222;5.678;2023-07-02T07:33:28;18.10;99.90
28773;DHT22;15925;51.222;5.678;2023-07-02T07:35:54;18.10;99.90
28773;DHT22;15925;51.222;5.678;2023-07-02T07:38:20;18.10;99.90
28773;DHT22;15925;51.222;5.678;2023-07-02T07:40:46;18.00;99.90
28773;DHT22;15925;51.222;5.678;2023-07-02T07:43:12;18.00;99.90
28773;DHT22;15925;51.222;5.678;2023-07-02T07:45:38;18.10;99.90
28773;DHT22;15925;51.222;5.678;2023-07-02T07:48:05;18.00;99.90
28773;DHT22;15925;51.222;5.678;2023-07-02T07:50:31;18.00;99.90
28773;DHT22;15925;51.222;5.678;2023-07-02T07:52:57;18.00;99.90
28773;DHT22;15925;51.222;5.678;2023-07-02T07:55:23;17.90;99.90
28773;DHT22;15925;51.222;5.678;2023-07-02T07:57:49;17.90;99.90
28773;DHT22;15925;51.222;5.678;2023-07-02T08:00:15;17.90;99.90
28773;DHT22;15925;51.222;5.678;2023-07-02T08:02:46;18.00;99.90
28773;DHT22;15925;51.222;5.678;2023-07-02T08:05:14;18.00;99.90
28773;DHT22;15925;51.222;5.678;2023-07-02T08:07:40;18.00;99.90
28773;DHT22;15925;51.222;5.678;2023-07-02T08:10:06;17.90;99.90
28773;DHT22;15925;51.222;5.678;2023-07-02T08:12:34;17.90;99.90
28773;DHT22;15925;51.222;5.678;2023-07-02T08:15:00;17.80;99.90
28773;DHT22;15925;51.222;5.678;2023-07-02T08:17:26;17.70;99.90
28773;DHT22;15925;51.222;5.678;2023-07-02T08:19:51;17.70;99.90
28773;DHT22;15925;51.222;5.678;2023-07-02T08:22:17;17.60;99.90
28773;DHT22;15925;51.222;5.678;2023-07-02T08:24:43;17.60;99.90
28773;DHT22;15925;51.222;5.678;2023-07-02T08:27:09;17.50;99.90
28773;DHT22;15925;51.222;5.678;2023-07-02T08:29:39;17.50;99.90
28773;DHT22;15925;51.222;5.678;2023-07-02T08:32:05;17.40;99.90
28773;DHT22;15925;51.222;5.678;2023-07-02T08:34:31;17.40;99.90
28773;DHT22;15925;51.222;5.678;2023-07-02T08:36:56;17.30;99.90
28773;DHT22;15925;51.222;5.678;2023-07-02T08:39:22;17.30;99.90
28773;DHT22;15925;51.222;5.678;2023-07-02T08:41:48;17.40;99.90
28773;DHT22;15925;51.222;5.678;2023-07-02T08:44:17;17.40;99.90
28773;DHT22;15925;51.222;5.678;2023-07-02T08:46:43;17.40;99.90
28773;DHT22;15925;51.222;5.678;2023-07-02T08:49:10;17.40;99.90
28773;DHT22;15925;51.222;5.678;2023-07-02T08:51:36;17.30;99.90
28773;DHT22;15925;51.222;5.678;2023-07-02T08:54:02;17.30;99.90
28773;DHT22;15925;51.222;5.678;2023-07-02T08:56:29;17.30;99.90
28773;DHT22;15925;51.222;5.678;2023-07-02T08:58:55;17.30;99.90
28773;DHT22;15925;51.222;5.678;2023-07-02T09:01:21;17.20;99.90
28773;DHT22;15925;51.222;5.678;2023-07-02T09:03:48;17.30;99.90
28773;DHT22;15925;51.222;5.678;2023-07-02T09:06:17;17.40;99.90
28773;DHT22;15925;51.222;5.678;2023-07-02T09:08:44;17.40;99.90
28773;DHT22;15925;51.222;5.678;2023-07-02T09:11:14;17.50;99.90
28773;DHT22;15925;51.222;5.678;2023-07-02T09:13:50;17.60;99.90
28773;DHT22;15925;51.222;5.678;2023-07-02T09:16:36;17.80;99.90
28773;DHT22;15925;51.222;5.678;2023-07-02T09:19:04;18.10;99.90
28773;DHT22;15925;51.222;5.678;2023-07-02T09:21:48;18.20;99.90
28773;DHT22;15925;51.222;5.678;2023-07-02T09:24:20;18.30;99.90
28773;DHT22;15925;51.222;5.678;2023-07-02T09:26:51;18.30;99.90
28773;DHT22;15925;51.222;5.678;2023-07-02T09:29:36;18.30;99.90
28773;DHT22;15925;51.222;5.678;2023-07-02T09:32:05;18.30;99.90
28773;DHT22;15925;51.222;5.678;2023-07-02T09:34:36;18.30;99.90
28773;DHT22;15925;51.222;5.678;2023-07-02T09:37:03;18.20;99.90
28773;DHT22;15925;51.222;5.678;2023-07-02T09:39:34;18.40;99.90
28773;DHT22;15925;51.222;5.678;2023-07-02T09:42:03;18.60;99.90
28773;DHT22;15925;51.222;5.678;2023-07-02T09:44:31;18.70;99.90
28773;DHT22;15925;51.222;5.678;2023-07-02T09:47:04;18.80;99.90
28773;DHT22;15925;51.222;5.678;2023-07-02T09:49:42;18.90;99.90
28773;DHT22;15925;51.222;5.678;2023-07-02T09:52:11;18.90;99.90
28773;DHT22;15925;51.222;5.678;2023-07-02T09:54:38;19.00;99.90
28773;DHT22;15925;51.222;5.678;2023-07-02T09:57:05;19.10;99.90
28773;DHT22;15925;51.222;5.678;2023-07-02T09:59:32;19.20;99.90
28773;DHT22;15925;51.222;5.678;2023-07-02T10:01:59;19.20;99.90
28773;DHT22;15925;51.222;5.678;2023-07-02T10:04:25;19.20;99.90
28773;DHT22;15925;51.222;5.678;2023-07-02T10:06:55;19.30;99.90
28773;DHT22;15925;51.222;5.678;2023-07-02T10:09:37;19.20;99.90
28773;DHT22;15925;51.222;5.678;2023-07-02T10:14:46;19.00;99.90
28773;DHT22;15925;51.222;5.678;2023-07-02T10:20:03;19.00;99.90
28773;DHT22;15925;51.222;5.678;2023-07-02T10:22:46;19.00;99.90
28773;DHT22;15925;51.222;5.678;2023-07-02T10:25:42;19.00;99.90
28773;DHT22;15925;51.222;5.678;2023-07-02T10:28:19;19.00;99.90
28773;DHT22;15925;51.222;5.678;2023-07-02T10:30:48;19.10;99.90
28773;DHT22;15925;51.222;5.678;2023-07-02T10:33:16;19.10;99.90
28773;DHT22;15925;51.222;5.678;2023-07-02T10:35:44;19.20;99.90
28773;DHT22;15925;51.222;5.678;2023-07-02T10:38:20;19.20;99.90
28773;DHT22;15925;51.222;5.678;2023-07-02T10:40:56;19.20;99.90
28773;DHT22;15925;51.222;5.678;2023-07-02T10:43:29;19.20;99.90
28773;DHT22;15925;51.222;5.678;2023-07-02T10:45:55;19.40;99.90
28773;DHT22;15925;51.222;5.678;2023-07-02T10:48:21;19.30;99.90
28773;DHT22;15925;51.222;5.678;2023-07-02T10:50:47;19.40;99.90
28773;DHT22;15925;51.222;5.678;2023-07-02T10:53:19;19.60;99.90
28773;DHT22;15925;51.222;5.678;2023-07-02T10:55:45;19.60;99.90
28773;DHT22;15925;51.222;5.678;2023-07-02T10:58:12;19.70;99.90
28773;DHT22;15925;51.222;5.678;2023-07-02T11:00:50;19.70;99.90
28773;DHT22;15925;51.222;5.678;2023-07-02T11:03:20;19.50;99.90
28773;DHT22;15925;51.222;5.678;2023-07-02T11:05:47;19.60;99.90
28773;DHT22;15925;51.222;5.678;2023-07-02T11:08:13;19.50;99.90
28773;DHT22;15925;51.222;5.678;2023-07-02T11:10:39;19.60;99.90
28773;DHT22;15925;51.222;5.678;2023-07-02T11:13:18;19.70;99.90
28773;DHT22;15925;51.222;5.678;2023-07-02T11:15:45;19.80;99.90
28773;DHT22;15925;51.222;5.678;2023-07-02T11:18:15;19.90;99.90
28773;DHT22;15925;51.222;5.678;2023-07-02T11:20:42;19.90;99.90
28773;DHT22;15925;51.222;5.678;2023-07-02T11:23:22;19.90;99.90
28773;DHT22;15925;51.222;5.678;2023-07-02T11:26:01;19.90;99.90
28773;DHT22;15925;51.222;5.678;2023-07-02T11:28:29;19.80;99.90
28773;DHT22;15925;51.222;5.678;2023-07-02T11:30:55;19.80;99.90
28773;DHT22;15925;51.222;5.678;2023-07-02T11:33:39;19.80;99.90
28773;DHT22;15925;51.222;5.678;2023-07-02T11:36:06;19.70;99.90
28773;DHT22;15925;51.222;5.678;2023-07-02T11:38:34;19.60;99.90
28773;DHT22;15925;51.222;5.678;2023-07-02T11:41:03;19.60;99.90
28773;DHT22;15925;51.222;5.678;2023-07-02T11:43:29;19.70;99.90
28773;DHT22;15925;51.222;5.678;2023-07-02T11:45:55;19.90;99.90
28773;DHT22;15925;51.222;5.678;2023-07-02T11:48:20;20.10;99.90
28773;DHT22;15925;51.222;5.678;2023-07-02T11:50:46;20.20;99.90
28773;DHT22;15925;51.222;5.678;2023-07-02T11:53:12;20.30;99.90
28773;DHT22;15925;51.222;5.678;2023-07-02T11:55:38;20.50;99.90
28773;DHT22;15925;51.222;5.678;2023-07-02T11:58:04;20.50;99.90
28773;DHT22;15925;51.222;5.678;2023-07-02T12:00:30;20.60;99.90
28773;DHT22;15925;51.222;5.678;2023-07-02T12:02:56;20.60;99.90
28773;DHT22;15925;51.222;5.678;2023-07-02T12:05:21;20.70;99.90
28773;DHT22;15925;51.222;5.678;2023-07-02T12:07:47;20.70;99.90
28773;DHT22;15925;51.222;5.678;2023-07-02T12:10:13;20.50;99.90
28773;DHT22;15925;51.222;5.678;2023-07-02T12:12:39;20.40;99.90
28773;DHT22;15925;51.222;5.678;2023-07-02T12:15:05;20.20;99.90
28773;DHT22;15925;51.222;5.678;2023-07-02T12:17:31;20.30;99.90
28773;DHT22;15925;51.222;5.678;2023-07-02T12:19:58;20.40;99.90
28773;DHT22;15925;51.222;5.678;2023-07-02T12:22:23;20.60;99.90
28773;DHT22;15925;51.222;5.678;2023-07-02T12:24:49;20.60;99.90
28773;DHT22;15925;51.222;5.678;2023-07-02T12:27:15;20.70;99.90
28773;DHT22;15925;51.222;5.678;2023-07-02T12:29:42;20.70;99.90
28773;DHT22;15925;51.222;5.678;2023-07-02T12:32:10;20.70;99.90
28773;DHT22;15925;51.222;5.678;2023-07-02T12:34:38;20.90;99.90
28773;DHT22;15925;51.222;5.678;2023-07-02T12:37:04;21.00;99.90
28773;DHT22;15925;51.222;5.678;2023-07-02T12:39:30;21.10;99.90
28773;DHT22;15925;51.222;5.678;2023-07-02T12:41:56;21.10;99.90
28773;DHT22;15925;51.222;5.678;2023-07-02T12:44:22;21.00;99.90
28773;DHT22;15925;51.222;5.678;2023-07-02T12:46:47;21.00;99.90
28773;DHT22;15925;51.222;5.678;2023-07-02T12:49:13;21.00;99.90
28773;DHT22;15925;51.222;5.678;2023-07-02T12:51:39;21.20;99.90
28773;DHT22;15925;51.222;5.678;2023-07-02T12:54:05;21.30;99.90
28773;DHT22;15925;51.222;5.678;2023-07-02T12:56:30;21.20;99.90
28773;DHT22;15925;51.222;5.678;2023-07-02T12:58:56;21.10;99.90
28773;DHT22;15925;51.222;5.678;2023-07-02T13:01:22;21.10;99.90
28773;DHT22;15925;51.222;5.678;2023-07-02T13:03:49;20.90;99.90
28773;DHT22;15925;51.222;5.678;2023-07-02T13:06:15;21.00;99.90
28773;DHT22;15925;51.222;5.678;2023-07-02T13:08:41;21.10;99.90
28773;DHT22;15925;51.222;5.678;2023-07-02T13:11:07;21.20;99.90
28773;DHT22;15925;51.222;5.678;2023-07-02T13:13:34;21.30;99.90
28773;DHT22;15925;51.222;5.678;2023-07-02T13:16:02;21.20;99.90
28773;DHT22;15925;51.222;5.678;2023-07-02T13:18:28;21.30;99.90
28773;DHT22;15925;51.222;5.678;2023-07-02T13:20:53;21.40;99.90
28773;DHT22;15925;51.222;5.678;2023-07-02T13:23:19;21.30;99.90
28773;DHT22;15925;51.222;5.678;2023-07-02T13:25:45;21.20;99.90
28773;DHT22;15925;51.222;5.678;2023-07-02T13:28:11;21.20;99.90
28773;DHT22;15925;51.222;5.678;2023-07-02T13:30:37;21.10;99.90
28773;DHT22;15925;51.222;5.678;2023-07-02T13:33:03;21.10;99.90
28773;DHT22;15925;51.222;5.678;2023-07-02T13:35:29;21.20;99.90
28773;DHT22;15925;51.222;5.678;2023-07-02T13:37:54;21.20;99.90
28773;DHT22;15925;51.222;5.678;2023-07-02T13:40:20;21.20;99.90
28773;DHT22;15925;51.222;5.678;2023-07-02T13:42:46;21.10;99.90
28773;DHT22;15925;51.222;5.678;2023-07-02T13:45:12;21.30;99.90
28773;DHT22;15925;51.222;5.678;2023-07-02T13:47:38;21.50;99.90
28773;DHT22;15925;51.222;5.678;2023-07-02T13:50:04;21.60;99.90
28773;DHT22;15925;51.222;5.678;2023-07-02T13:52:30;21.80;99.90
28773;DHT22;15925;51.222;5.678;2023-07-02T13:54:56;21.80;99.90
28773;DHT22;15925;51.222;5.678;2023-07-02T13:57:24;21.80;99.90
28773;DHT22;15925;51.222;5.678;2023-07-02T13:59:50;22.00;99.90
28773;DHT22;15925;51.222;5.678;2023-07-02T14:02:16;22.10;99.90
28773;DHT22;15925;51.222;5.678;2023-07-02T14:04:42;22.20;99.90
28773;DHT22;15925;51.222;5.678;2023-07-02T14:07:08;22.20;99.90
28773;DHT22;15925;51.222;5.678;2023-07-02T14:09:34;22.00;99.90
28773;DHT22;15925;51.222;5.678;2023-07-02T14:12:00;22.10;99.90
28773;DHT22;15925;51.222;5.678;2023-07-02T14:14:25;22.10;99.90
28773;DHT22;15925;51.222;5.678;2023-07-02T14:16:51;22.00;99.90
28773;DHT22;15925;51.222;5.678;2023-07-02T14:19:17;21.90;99.90
28773;DHT22;15925;51.222;5.678;2023-07-02T14:21:43;21.70;99.90
28773;DHT22;15925;51.222;5.678;2023-07-02T14:24:08;21.70;99.90
28773;DHT22;15925;51.222;5.678;2023-07-02T14:26:34;21.80;99.90
28773;DHT22;15925;51.222;5.678;2023-07-02T14:29:00;21.90;99.90
28773;DHT22;15925;51.222;5.678;2023-07-02T14:31:26;22.10;99.90
28773;DHT22;15925;51.222;5.678;2023-07-02T14:33:52;22.20;99.90
28773;DHT22;15925;51.222;5.678;2023-07-02T14:36:19;22.30;99.90
28773;DHT22;15925;51.222;5.678;2023-07-02T14:38:45;22.30;99.90
28773;DHT22;15925;51.222;5.678;2023-07-02T14:41:11;22.00;99.90
28773;DHT22;15925;51.222;5.678;2023-07-02T14:43:37;22.10;99.90
28773;DHT22;15925;51.222;5.678;2023-07-02T14:46:03;22.10;99.90
28773;DHT22;15925;51.222;5.678;2023-07-02T14:48:29;22.20;99.90
28773;DHT22;15925;51.222;5.678;2023-07-02T14:50:59;22.30;99.90
28773;DHT22;15925;51.222;5.678;2023-07-02T14:53:26;22.20;99.90
28773;DHT22;15925;51.222;5.678;2023-07-02T14:55:58;22.20;99.90
28773;DHT22;15925;51.222;5.678;2023-07-02T14:58:24;22.30;99.90
28773;DHT22;15925;51.222;5.678;2023-07-02T15:00:52;22.20;99.90
28773;DHT22;15925;51.222;5.678;2023-07-02T15:03:19;22.20;99.90
28773;DHT22;15925;51.222;5.678;2023-07-02T15:05:47;22.20;99.90
28773;DHT22;15925;51.222;5.678;2023-07-02T15:08:13;22.10;99.90
28773;DHT22;15925;51.222;5.678;2023-07-02T15:10:40;22.20;99.90
28773;DHT22;15925;51.222;5.678;2023-07-02T15:13:06;22.20;99.90
28773;DHT22;15925;51.222;5.678;2023-07-02T15:15:32;21.90;98.90
28773;DHT22;15925;51.222;5.678;2023-07-02T15:17:57;21.80;99.90
28773;DHT22;15925;51.222;5.678;2023-07-02T15:20:24;21.80;99.90
28773;DHT22;15925;51.222;5.678;2023-07-02T15:22:50;21.80;99.90
28773;DHT22;15925;51.222;5.678;2023-07-02T15:25:16;21.80;99.90
28773;DHT22;15925;51.222;5.678;2023-07-02T15:27:43;21.80;99.90
28773;DHT22;15925;51.222;5.678;2023-07-02T15:30:09;21.90;99.90
28773;DHT22;15925;51.222;5.678;2023-07-02T15:32:35;21.90;99.90
28773;DHT22;15925;51.222;5.678;2023-07-02T15:35:01;21.90;99.90